Herstmonceux, United Kingdom
Current Conditions -  °F | °C
As of 5:20 PM on Sunday 23 Nov 2014 (Local Time) from EGKA Reporting Station
Scattered Clouds Scattered Clouds  
Wind Chill:   Ceiling: Unl
Heat Index:   Visibility: 6mi
Dew Point:   Wind: 14mph
Humidity: 93%   Direction: 360°N
Pressure: 30.06"   Gusts: NA
Location:  50.89°N, 0.32°E
Report Text: EGKA 231720Z 36012KT 9999 FEW007 SCT020 07/06 Q1018
Loading
Personal Weather Stations






























Interactive Weather Map New forecast layout! Learn more

10-Day Weather Forecast

Advertisements
Track Severe Weather on mobile